Latest Coastal Weather Observations for Lockhart River

IDQ60701

Issued at 6:31 pm EST Friday 22 May 2015 (issued every 10 minutes, with the page automatically refreshed every 10 minutes)

About coastal observations | Map of coastal stations | Coastal observations for QLD | Marine services | Other Formats
Station Details ID: 028008 Name: LOCKHART RIVER AIRPORT Lat: -12.79 Lon: 143.30 Height: 18.5 m
Data from the previous 72 hours. | See also: Recent months at Lockhart River
Date/Time
EST
Temp

°C
Wind Pressure Rain
since 9am
mm
Weather Cloud Vis
km
Sea
Height
m
Swell
Dir
 
Speed
knots
Gust
knots
hPa Trend Height
m
Period
s
Dir
22/06:30pm 24.8 ESE 4 6 1014.5 - 0.0 - - - - - - -
22/06:00pm 25.8 ESE 6 8 1014.2 - 0.0 - - - - - - -
22/05:30pm 26.6 ESE 8 12 1014.3 - 0.0 - - - - - - -
22/05:00pm 27.3 ESE 9 13 1014.2 - 0.0 - - - - - - -
22/04:30pm 27.8 ESE 9 12 1014.0 - 0.0 - Partly cloudy - - - - -
22/04:00pm 28.1 ESE 11 16 1013.7 - 0.0 - - - - - - -
22/03:30pm 28.2 ESE 11 17 1013.6 - 0.0 - Partly cloudy - - - - -
22/03:00pm 28.0 E 11 17 1013.5 - 0.0 Fine Partly cloudy 30 - - - -
22/02:30pm 28.7 E 9 14 1013.7 - 0.0 - - - - - - -
22/02:00pm 28.8 ESE 12 17 1013.9 - 0.0 - Partly cloudy - - - - -
22/01:30pm 28.4 E 11 17 1014.1 - 0.0 - Partly cloudy - - - - -
22/01:00pm 29.2 E 9 15 1014.4 - 0.0 - Partly cloudy - - - - -
22/12:30pm 29.0 E 9 14 1014.8 - 0.0 - - - - - - -
22/12:00pm 29.1 E 9 13 1015.0 - 0.0 - Partly cloudy - - - - -
22/11:30am 28.2 SE 10 13 1015.3 - 0.0 - Partly cloudy - - - - -
22/11:00am 28.2 SE 7 11 1015.6 - 0.0 - Partly cloudy - - - - -
22/10:30am 27.8 ESE 7 11 1016.1 - 0.0 - Partly cloudy - - - - -
22/10:05am 27.9 SSE 7 13 1016.2 - 0.0 - Partly cloudy - - - - -
22/10:00am 27.1 SSE 7 11 1016.4 - 0.0 - Partly cloudy - - - - -
22/09:50am 27.1 SE 7 10 1016.4 - 0.0 - Partly cloudy - - - - -
22/09:30am 26.9 SE 7 10 1016.5 - 0.0 - Partly cloudy - - - - -
22/09:00am 25.2 S 6 8 1016.4 - 0.0 Fine Partly cloudy 30 - - - -
22/08:30am 23.5 CALM 0 0 1016.2 - 0.0 - - - - - - -
22/08:00am 21.7 CALM 0 0 1016.2 - 0.0 - - - - - - -
22/07:30am 20.0 CALM 0 0 1016.0 - 0.0 - - - - - - -
22/07:00am 19.1 CALM 0 0 1016.1 - 0.0 - Partly cloudy - - - - -
22/06:30am 19.0 WNW 2 4 1015.8 - 0.0 - - - - - - -
22/06:09am 19.3 CALM 0 0 1015.6 - 0.0 - Partly cloudy - - - - -
22/06:00am 19.5 CALM 0 0 1015.5 - 0.0 - Partly cloudy - - - - -
22/05:30am 19.4 CALM 0 0 1015.4 - 0.0 - Partly cloudy - - - - -
22/05:01am 19.2 CALM 0 0 1015.1 - 0.0 - Partly cloudy - - - - -
22/05:00am 19.2 CALM 0 0 1015.1 - 0.0 - Partly cloudy - - - - -
22/04:30am 19.2 CALM 0 0 1015.0 - 0.0 - Partly cloudy - - - - -
22/04:00am 19.6 CALM 0 0 1014.9 - 0.0 - - - - - - -
22/03:30am 19.5 CALM 0 0 1014.7 - 0.0 - - - - - - -
22/03:00am 19.8 CALM 0 0 1014.7 - 0.0 - - - - - - -
22/02:47am 19.7 CALM 0 0 1014.9 - 0.0 - Partly cloudy - - - - -
22/02:30am 20.0 CALM 0 0 1015.1 - 0.0 - Partly cloudy - - - - -
22/02:25am 20.0 CALM 0 0 1015.1 - 0.0 - Partly cloudy - - - - -
22/02:00am 20.0 CALM 0 3 1015.3 - 0.0 - Partly cloudy - - - - -
22/01:30am 20.2 CALM 0 0 1015.6 - 0.0 - - - - - - -
22/01:00am 20.5 CALM 0 0 1015.7 - 0.0 - Partly cloudy - - - - -
22/12:30am 20.4 CALM 0 0 1015.9 - 0.0 - Partly cloudy - - - - -
22/12:00am 20.8 CALM 0 0 1016.0 - 0.0 - - - - - - -
 
Date/Time
EST
Temp

°C
Wind Pressure Rain
since 9am
mm
Weather Cloud Vis
km
Sea
Height
m
Swell
Dir
 
Speed
knots
Gust
knots
hPa Trend Height
m
Period
s
Dir
21/11:30pm 21.1 CALM 0 3 1016.3 - 0.0 - - - - - - -
21/11:00pm 21.3 CALM 0 0 1016.5 - 0.0 - Partly cloudy - - - - -
21/10:30pm 21.7 CALM 0 0 1016.5 - 0.0 - - - - - - -
21/10:00pm 22.0 CALM 0 0 1016.5 - 0.0 - Partly cloudy - - - - -
21/09:46pm 22.0 CALM 0 0 1016.4 - 0.0 - Partly cloudy - - - - -
21/09:34pm 22.2 CALM 0 0 1016.4 - 0.0 - Partly cloudy - - - - -
21/09:30pm 22.3 CALM 0 0 1016.4 - 0.0 - Partly cloudy - - - - -
21/09:00pm 22.7 S 1 5 1016.1 - 0.0 - - - - - - -
21/08:30pm 23.4 ENE 5 7 1015.8 - 0.0 - - - - - - -
21/08:00pm 23.4 SE 3 4 1016.0 - 0.0 - - - - - - -
21/07:30pm 24.2 E 5 6 1015.5 - 0.0 - - - - - - -
21/07:00pm 24.4 ESE 5 6 1015.3 - 0.0 - - - - - - -
21/06:30pm 24.8 E 4 7 1015.0 - 0.0 - - - - - - -
21/06:00pm 25.6 ESE 5 8 1014.5 - 0.0 - - - - - - -
21/05:30pm 26.1 E 7 10 1014.4 - 0.0 - - - - - - -
21/05:00pm 27.1 E 9 12 1014.2 - 0.0 - Partly cloudy - - - - -
21/04:30pm 27.3 E 10 14 1013.9 - 0.0 - Partly cloudy - - - - -
21/04:00pm 28.1 E 9 14 1013.7 - 0.0 - - - - - - -
21/03:30pm 28.1 E 9 14 1013.7 - 0.0 - - - - - - -
21/03:00pm 28.2 ESE 10 14 1013.6 - 0.0 Fine Partly cloudy 30 - - - -
21/02:30pm 28.4 E 9 14 1013.9 - 0.0 - Partly cloudy - - - - -
21/02:00pm 28.2 E 10 15 1014.2 - 0.0 - - - - - - -
21/01:30pm 28.1 E 10 14 1014.5 - 0.0 - Partly cloudy - - - - -
21/01:00pm 28.7 E 10 14 1014.8 - 0.0 - Partly cloudy - - - - -
21/12:30pm 28.5 E 9 14 1015.4 - 0.0 - Partly cloudy - - - - -
21/12:00pm 28.7 ESE 9 12 1015.8 - 0.0 - Partly cloudy - - - - -
21/11:30am 28.8 E 9 13 1016.5 - 0.0 - Partly cloudy - - - - -
21/11:00am 28.5 E 10 15 1016.8 - 0.0 - Partly cloudy - - - - -
21/10:30am 27.9 E 11 15 1017.0 - 0.0 - Partly cloudy - - - - -
21/10:09am 27.9 E 9 12 1017.2 - 0.0 - Partly cloudy - - - - -
21/10:00am 27.9 E 8 13 1017.2 - 0.0 - Partly cloudy - - - - -
21/09:56am 28.1 E 8 13 1017.2 - 0.0 - Partly cloudy - - - - -
21/09:54am 27.9 ESE 8 13 1017.2 - 0.0 - Partly cloudy - - - - -
21/09:30am 26.9 SSE 8 13 1017.3 - 0.0 - Partly cloudy - - - - -
21/09:22am 26.7 SSE 5 9 1017.4 - 0.0 - Partly cloudy - - - - -
21/09:00am 24.9 E 2 6 1017.4 - 0.0 Fine Partly cloudy 30 - - - -
21/08:30am 23.7 ESE 1 3 1017.2 - 0.0 - Partly cloudy - - - - -
21/08:00am 22.7 CALM 0 0 1016.9 - 0.0 - Partly cloudy - - - - -
21/07:30am 20.8 CALM 0 0 1016.7 - 0.0 - Partly cloudy - - - - -
21/07:00am 20.0 CALM 0 0 1016.3 - 0.0 - Partly cloudy - - - - -
21/06:30am 19.8 CALM 0 0 1015.8 - 0.0 - - - - - - -
21/06:00am 19.9 CALM 0 0 1015.6 - 0.0 - - - - - - -
21/05:38am 20.0 CALM 0 0 1015.6 - 0.0 - Partly cloudy - - - - -
21/05:30am 20.3 CALM 0 0 1015.6 - 0.0 - Partly cloudy - - - - -
21/05:26am 20.4 CALM 0 0 1015.6 - 0.0 - Partly cloudy - - - - -
21/05:04am 20.4 CALM 0 0 1015.5 - 0.0 - Partly cloudy - - - - -
21/05:00am 20.5 CALM 0 0 1015.5 - 0.0 - Partly cloudy - - - - -
21/04:30am 20.7 CALM 0 0 1015.4 - 0.0 - Partly cloudy - - - - -
21/04:20am 20.6 CALM 0 0 1015.4 - 0.0 - Partly cloudy - - - - -
21/04:13am 20.5 CALM 0 0 1015.4 - 0.0 - Partly cloudy - - - - -
21/04:00am 20.4 CALM 0 0 1015.5 - 0.0 - Partly cloudy - - - - -
21/03:59am 20.4 CALM 0 0 1015.4 - 0.0 - Partly cloudy - - - - -
21/03:30am 20.7 CALM 0 0 1015.5 - 0.0 - - - - - - -
21/03:05am 20.8 CALM 0 0 1015.6 - 0.0 - Partly cloudy - - - - -
21/03:00am 20.8 CALM 0 0 1015.5 - 0.0 - Partly cloudy - - - - -
21/02:30am 21.0 CALM 0 0 1015.8 - 0.0 - Partly cloudy - - - - -
21/02:00am 21.1 CALM 0 0 1015.9 - 0.0 - Partly cloudy - - - - -
21/01:51am 21.2 CALM 0 0 1016.0 - 0.0 - Partly cloudy - - - - -
21/01:34am 21.2 CALM 0 1 1016.1 - 0.0 - Partly cloudy - - - - -
21/01:30am 21.2 CALM 0 0 1016.1 - 0.0 - Partly cloudy - - - - -
21/01:00am 21.3 CALM 0 0 1016.3 - 0.0 - Partly cloudy - - - - -
21/12:30am 21.3 CALM 0 0 1016.5 - 0.0 - Partly cloudy - - - - -
21/12:00am 21.6 CALM 0 0 1016.4 - 0.0 - Partly cloudy - - - - -
 
Date/Time
EST
Temp

°C
Wind Pressure Rain
since 9am
mm
Weather Cloud Vis
km
Sea
Height
m
Swell
Dir
 
Speed
knots
Gust
knots
hPa Trend Height
m
Period
s
Dir
20/11:39pm 21.4 CALM 0 0 1016.4 - 0.0 - Partly cloudy - - - - -
20/11:30pm 21.4 CALM 0 0 1016.4 - 0.0 - Partly cloudy - - - - -
20/11:24pm 21.4 CALM 0 0 1016.4 - 0.0 - Partly cloudy - - - - -
20/11:20pm 21.5 CALM 0 0 1016.4 - 0.0 - Partly cloudy - - - - -
20/11:00pm 21.5 CALM 0 0 1016.5 - 0.0 - Partly cloudy - - - - -
20/10:46pm 21.6 CALM 0 0 1016.5 - 0.0 - Partly cloudy - - - - -
20/10:30pm 21.4 CALM 0 0 1016.5 - 0.0 - Partly cloudy - - - - -
20/10:00pm 21.9 CALM 0 0 1016.6 - 0.0 - - - - - - -
20/09:30pm 22.3 CALM 0 0 1016.5 - 0.0 - Partly cloudy - - - - -
20/09:09pm 22.7 CALM 0 0 1016.5 - 0.0 - Partly cloudy - - - - -
20/09:00pm 22.7 CALM 0 0 1016.4 - 0.0 - Partly cloudy - - - - -
20/08:31pm 23.0 CALM 0 0 1016.2 - 0.0 - Partly cloudy - - - - -
20/08:30pm 23.1 CALM 0 0 1016.2 - 0.0 - Partly cloudy - - - - -
20/08:00pm 23.7 SE 3 4 1015.8 - 0.0 - Partly cloudy - - - - -
20/07:30pm 24.2 SE 3 4 1015.4 - 0.0 - - - - - - -
20/07:00pm 24.7 ESE 4 6 1015.0 - 0.0 - - - - - - -
20/06:30pm 25.0 ESE 5 7 1014.7 - 0.0 - Partly cloudy - - - - -
20/06:00pm 25.7 ESE 7 10 1014.3 - 0.0 - Partly cloudy - - - - -
20/05:30pm 26.2 ESE 9 12 1014.2 - 0.0 - Partly cloudy - - - - -
20/05:00pm 27.1 ESE 11 15 1013.9 - 0.0 - - - - - - -
20/04:30pm 27.6 ESE 10 15 1013.7 - 0.0 - - - - - - -
20/04:00pm 28.1 ESE 10 16 1013.6 - 0.0 - Partly cloudy - - - - -
20/03:30pm 28.2 ESE 11 16 1013.5 - 0.0 - Partly cloudy - - - - -
20/03:00pm 28.2 ESE 11 16 1013.5 - 0.0 Fine Partly cloudy 25 - - - -
20/02:30pm 28.2 ESE 11 17 1013.8 - 0.0 - Partly cloudy - - - - -
20/02:00pm 28.8 E 10 15 1014.1 - 0.0 - Partly cloudy - - - - -
20/01:30pm 28.0 E 11 16 1014.6 - 0.0 - Partly cloudy - - - - -
20/01:00pm 27.7 ESE 10 14 1015.0 - 0.0 - Partly cloudy - - - - -
20/12:30pm 27.5 ESE 11 16 1015.2 - 0.0 - Partly cloudy - - - - -
20/12:00pm 28.0 ESE 11 17 1015.3 - 0.0 - Partly cloudy - - - - -
20/11:30am 27.8 ESE 12 18 1015.7 - 0.0 - Partly cloudy - - - - -
20/11:00am 28.2 ESE 12 17 1016.3 - 0.0 - Partly cloudy - - - - -
20/10:30am 27.5 ESE 11 17 1016.3 - 0.0 - Partly cloudy - - - - -
20/10:00am 27.4 E 11 16 1016.4 - 0.0 - Partly cloudy - - - - -
20/09:30am 27.3 SE 10 13 1016.3 - 0.0 - Partly cloudy - - - - -
20/09:00am 26.0 SE 6 9 1015.9 - 0.0 Fine Partly cloudy 20 - - - -
20/08:30am 24.3 SE 4 5 1015.9 - 0.0 - Partly cloudy - - - - -
20/08:00am 23.1 SSE 2 5 1015.5 - 0.0 - Partly cloudy - - - - -
20/07:30am 21.6 CALM 0 0 1015.3 - 0.0 - Partly cloudy - - - - -
20/07:00am 19.8 CALM 0 0 1015.0 - 0.0 - - - - - - -
20/06:30am 19.9 CALM 0 0 1014.8 - 0.0 - - - - - - -
20/06:00am 20.0 CALM 0 0 1014.4 - 0.0 - - - - - - -
20/05:30am 20.1 CALM 0 0 1014.4 - 0.0 - - - - - - -
20/05:00am 20.5 CALM 0 0 1014.4 - 0.0 - Partly cloudy - - - - -
20/04:30am 21.0 CALM 0 0 1014.3 - 0.0 - Partly cloudy - - - - -
20/04:00am 21.3 CALM 0 0 1014.1 - 0.0 - Partly cloudy - - - - -
20/03:30am 21.4 CALM 0 0 1014.2 - 0.0 - Partly cloudy - - - - -
20/03:00am 22.4 CALM 0 0 1014.1 - 0.0 - Partly cloudy - - - - -
20/02:30am 22.6 SE 1 3 1014.3 - 0.0 - - - - - - -
20/02:00am 23.4 SE 4 5 1014.5 - 0.0 - Partly cloudy - - - - -
20/01:37am 23.6 SE 4 5 1014.8 - 0.0 - Partly cloudy - - - - -
20/01:30am 23.7 SE 5 5 1014.8 - 0.0 - Partly cloudy - - - - -
20/01:18am 23.8 SE 5 6 1014.9 - 0.0 - Partly cloudy - - - - -
20/01:00am 23.9 SE 5 5 1015.0 - 0.0 - Partly cloudy - - - - -
20/12:30am 24.1 SE 5 6 1015.1 - 0.0 - Partly cloudy - - - - -
20/12:00am 24.5 ESE 6 9 1015.2 - 0.0 - Partly cloudy - - - - -
 
Date/Time
EST
Temp

°C
Wind Pressure Rain
since 9am
mm
Weather Cloud Vis
km
Sea
Height
m
Swell
Dir
 
Speed
knots
Gust
knots
hPa Trend Height
m
Period
s
Dir
19/11:30pm 24.5 SE 7 9 1015.3 - 0.0 - Partly cloudy - - - - -
19/11:24pm 24.3 SE 6 8 1015.4 - 0.0 - Cloudy - - - - -
19/11:00pm 23.8 SE 4 5 1015.2 - 0.0 - Partly cloudy - - - - -
19/10:30pm 23.8 SE 3 4 1015.2 - 0.0 - Partly cloudy - - - - -
19/10:25pm 23.8 SE 4 5 1015.2 - 0.0 - Partly cloudy - - - - -
19/10:13pm 23.8 SE 3 4 1015.2 - 0.0 - Partly cloudy - - - - -
19/10:00pm 23.7 SE 3 4 1015.2 - 0.0 - Partly cloudy - - - - -
19/09:30pm 24.1 SE 3 4 1015.2 - 0.0 - Partly cloudy - - - - -
19/09:09pm 24.2 SE 3 4 1015.0 - 0.0 - Partly cloudy - - - - -
19/09:00pm 24.2 SE 3 4 1015.0 - 0.0 - Partly cloudy - - - - -
19/08:30pm 24.4 SE 4 5 1014.8 - 0.0 - Partly cloudy - - - - -
19/08:00pm 24.6 SE 5 6 1014.6 - 0.0 - Partly cloudy - - - - -
19/07:30pm 24.8 ESE 7 9 1014.2 - 0.0 - Partly cloudy - - - - -
19/07:00pm 25.0 ESE 8 10 1013.8 - 0.0 - - - - - - -

Other Formats:

Comma delimited format used in spreadsheet applications
http://www.bom.gov.au/fwo/IDQ60701/IDQ60701.94186.axf

JavaScript Object Notation format (JSON) in row-major order
http://www.bom.gov.au/fwo/IDQ60701/IDQ60701.94186.json